INFORMAÇÕES DO AERODROMO
Icao Aerodromo SBLO Nome do Aerodromo Governador José Richa Airport Cidade Londrina
Código GPS SBLO Elevação Média 1867 ft Tipo de Aerodromo Aeroporto Médio Porte

INFORMAÇÃO DE PISTA
Pista 13 Comprimento da Pista 6890 ft Largura da Pista 148 ft
Elevação da Pista 0 ft Distância de Area de Escape da Pista 0 ft Orientação da Pista 0
Pista 31 Comprimento da Pista 6890 ft Largura da Pista 148 ft
Elevação da Pista 0 ft Distância de Area de Escape da Pista 0 ft Orientação da Pista 0

FREQUÊNCIAS DO AERODROMO
Tipo APP Nome APP Frequência 129.7 MHZ
Tipo ATIS Nome ATIS Frequência 127.675 MHZ
Tipo TWR Nome TWR Frequência 118.4 MHZ

INFORMAÇÕES DE NAVEGAÇÃO PRÓXIMO AO AERODROMO
Tipo VOR-DME Nome Londrina Frequência 112400 KHZ
Tipo NDB Nome Londrina Frequência 365 KHZ
Tipo NDB Nome Guaruja Frequência 305 KHZ

Informações de Meteorologia(METAR atual)
METAR DE SBLO
ADDS - METARS form results

(0951 UTC 26 April 2018)
Data provider http://aviationweather.gov/adds/metars/
 
METAR text: SBLO 260900Z 12003KT CAVOK 19/16 Q1019
Conditions at: SBLO (LONDRINA AIRPORT, BR) observed 0900 UTC 26 April 2018
Temperature: 19.0°C (66°F)
Dewpoint: 16.0°C (61°F) [RH = 83%]
Pressure (altimeter): 30.09 inches Hg (1019.0 mb)
Winds: from the ESE (120 degrees) at 3 MPH (3 knots; 1.6 m/s)
Visibility: 6 or more miles (10+ km)
Ceiling: ceiling and visibility are OK
Clouds: unknown
Weather: no significant weather observed at this time

Forecast for: SBLO (LONDRINA AIRPORT, BR)
Text: TAF SBLO 260415Z 2606/2618 15006KT CAVOK TN19/2609Z TX32/2617Z
Forecast period: 0600 to 1000 UTC 26 April 2018
Forecast type: FROM: standard forecast or significant change
Winds: from the SSE (150 degrees) at 7 MPH (6 knots; 3.1 m/s)
Visibility: 6 or more miles (10+ km)
Clouds: not forecast
Weather: no significant weather forecast for this period
Forecast for: SBLO (LONDRINA AIRPORT, BR)
Text: TAF SBLO 260415Z 2606/2618 15006KT CAVOK TN19/2609Z TX32/2617Z
Forecast period: 0600 to 1000 UTC 26 April 2018
Forecast type: FROM: standard forecast or significant change
Winds: from the SSE (150 degrees) at 7 MPH (6 knots; 3.1 m/s)
Visibility: 6 or more miles (10+ km)
Clouds: not forecast
Weather: no significant weather forecast for this period
Forecast for: SBLO (LONDRINA AIRPORT, BR)
Text: TAF SBLO 260415Z 2606/2618 15006KT CAVOK TN19/2609Z TX32/2617Z
Forecast period: 1000 to 1300 UTC 26 April 2018
Forecast type: BECOMING: Conditions expected to become as follows by 1200 UTC 26 April 2018
Winds: from the SE (130 degrees) at 6 MPH (5 knots; 2.6 m/s)
Visibility: 6 or more miles (10+ km)
Weather: no significant weather forecast for this period
Forecast for: SBLO (LONDRINA AIRPORT, BR)
Text: TAF SBLO 260415Z 2606/2618 15006KT CAVOK TN19/2609Z TX32/2617Z
Forecast period: 1000 to 1300 UTC 26 April 2018
Forecast type: BECOMING: Conditions expected to become as follows by 1200 UTC 26 April 2018
Winds: from the SE (130 degrees) at 6 MPH (5 knots; 2.6 m/s)
Visibility: 6 or more miles (10+ km)
Weather: no significant weather forecast for this period
Forecast for: SBLO (LONDRINA AIRPORT, BR)
Text: TAF SBLO 260415Z 2606/2618 15006KT CAVOK TN19/2609Z TX32/2617Z
Forecast period: 1300 to 1800 UTC 26 April 2018
Forecast type: BECOMING: Conditions expected to become as follows by 1500 UTC 26 April 2018
Winds: from the SE (130 degrees) at 6 MPH (5 knots; 2.6 m/s)
Visibility: 6 or more miles (10+ km)
Clouds: few clouds at 3500 feet AGL
Weather: no significant weather forecast for this period
Forecast for: SBLO (LONDRINA AIRPORT, BR)
Text: TAF SBLO 260415Z 2606/2618 15006KT CAVOK TN19/2609Z TX32/2617Z
Forecast period: 1300 to 1800 UTC 26 April 2018
Forecast type: BECOMING: Conditions expected to become as follows by 1500 UTC 26 April 2018
Winds: from the SE (130 degrees) at 6 MPH (5 knots; 2.6 m/s)
Visibility: 6 or more miles (10+ km)
Clouds: few clouds at 3500 feet AGL
Weather: no significant weather forecast for this period

MAPA DO AERODROMO


Desenvolvido por Virtual Airlines Manager




Modificado por Servidor Brasil Amigos